createdAt,value
2023-05-14T00:01:42.857Z,96442.47
2023-05-14T00:04:16.561Z,96441.81
2023-05-14T00:06:45.211Z,96432.56
2023-05-14T00:09:13.215Z,96436.47
2023-05-14T00:11:46.420Z,96433.44
2023-05-14T00:14:15.898Z,96327.34
2023-05-14T00:16:45.895Z,96434.38
2023-05-14T00:19:22.290Z,96433.09
2023-05-14T00:21:50.690Z,96424.75
2023-05-14T00:24:37.802Z,96435.03
2023-05-14T00:27:10.328Z,96424.75
2023-05-14T00:29:42.935Z,96420.41
2023-05-14T00:32:12.260Z,96359.00
2023-05-14T00:34:44.581Z,96413.00
2023-05-14T00:37:12.583Z,96411.75
2023-05-14T00:39:43.079Z,96413.22
2023-05-14T00:42:22.801Z,96392.75
2023-05-14T00:44:52.371Z,96409.41
2023-05-14T00:50:09.065Z,96402.84
2023-05-14T00:52:37.983Z,96401.09
2023-05-14T00:55:10.520Z,96431.16
2023-05-14T00:57:38.442Z,96397.91
2023-05-14T01:00:14.960Z,96398.34
2023-05-14T01:02:42.889Z,96394.53
2023-05-14T01:05:12.553Z,96383.50
2023-05-14T01:07:49.923Z,96383.56
2023-05-14T01:10:23.768Z,96386.25
2023-05-14T01:13:01.218Z,96300.59
2023-05-14T01:15:35.051Z,96387.59
2023-05-14T01:18:08.861Z,96387.28
2023-05-14T01:20:40.645Z,96357.50
2023-05-14T01:23:10.292Z,96384.94
2023-05-14T01:25:41.031Z,96379.41
2023-05-14T01:28:18.171Z,96375.66
2023-05-14T01:30:51.312Z,96385.81
2023-05-14T01:33:21.397Z,96382.22
2023-05-14T01:36:00.758Z,96381.63
2023-05-14T01:38:31.973Z,96395.84
2023-05-14T01:41:00.544Z,96387.28
2023-05-14T01:43:28.704Z,96388.03
2023-05-14T01:46:05.855Z,96393.72
2023-05-14T01:48:34.891Z,96389.72
2023-05-14T01:51:03.196Z,96396.63
2023-05-14T01:53:34.936Z,96395.78
2023-05-14T01:56:03.422Z,96395.88
2023-05-14T01:58:31.624Z,96401.19
2023-05-14T02:01:02.519Z,96398.09
2023-05-14T02:03:30.296Z,96398.47
2023-05-14T02:06:01.063Z,96395.78
2023-05-14T02:08:29.031Z,96373.19
2023-05-14T02:11:02.293Z,96390.88
2023-05-14T02:13:32.393Z,96373.38
2023-05-14T02:16:03.537Z,96380.19
2023-05-14T02:18:38.222Z,96376.72
2023-05-14T02:21:10.175Z,96379.59
2023-05-14T02:23:42.180Z,96378.69
2023-05-14T02:26:13.034Z,96379.53
2023-05-14T02:28:42.448Z,96361.63
2023-05-14T02:31:14.791Z,96380.50
2023-05-14T02:33:51.443Z,96375.72
2023-05-14T02:36:19.544Z,96376.19
2023-05-14T02:38:48.928Z,96371.63
2023-05-14T02:41:18.633Z,96376.38
2023-05-14T02:43:50.004Z,96376.88
2023-05-14T02:46:18.195Z,96375.06
2023-05-14T02:48:46.536Z,96386.38
2023-05-14T02:51:16.090Z,96384.16
2023-05-14T02:53:46.862Z,96412.88
2023-05-14T02:56:15.652Z,96380.44
2023-05-14T02:58:48.733Z,96336.34
2023-05-14T03:01:19.100Z,96376.63
2023-05-14T03:03:48.791Z,96391.56
2023-05-14T03:06:19.946Z,96386.44
2023-05-14T03:08:52.066Z,96376.56
2023-05-14T03:11:21.737Z,96386.19
2023-05-14T03:14:03.494Z,96386.09
2023-05-14T03:16:33.487Z,96385.31
2023-05-14T03:19:06.535Z,96386.56
2023-05-14T03:21:34.664Z,96381.19
2023-05-14T03:24:05.507Z,96392.84
2023-05-14T03:26:38.666Z,96390.59
2023-05-14T03:29:08.378Z,96395.09
2023-05-14T03:31:40.483Z,96397.34
2023-05-14T03:34:08.247Z,96392.31
2023-05-14T03:36:36.349Z,96392.66
2023-05-14T03:39:06.493Z,96390.66
2023-05-14T03:41:38.106Z,96393.59
2023-05-14T03:44:08.151Z,96392.50
2023-05-14T03:46:39.456Z,96388.94
2023-05-14T03:49:09.431Z,96327.34
2023-05-14T03:51:37.515Z,96383.84
2023-05-14T03:54:10.030Z,96381.16
2023-05-14T03:56:38.704Z,96383.78
2023-05-14T03:59:10.234Z,96385.94
2023-05-14T04:01:38.747Z,96386.50
2023-05-14T04:04:07.105Z,96379.72
2023-05-14T04:06:36.888Z,96388.28
2023-05-14T04:09:05.536Z,96389.72
2023-05-14T04:11:33.540Z,96382.03
2023-05-14T04:14:02.820Z,96389.97
2023-05-14T04:16:32.522Z,96389.69
2023-05-14T04:19:03.336Z,96386.81
2023-05-14T04:21:31.564Z,96386.25
2023-05-14T04:24:00.408Z,96388.13
2023-05-14T04:26:28.826Z,96374.63
2023-05-14T04:28:56.488Z,96381.78
2023-05-14T04:31:28.846Z,96380.94
2023-05-14T04:34:01.434Z,96373.50
2023-05-14T04:36:33.598Z,96361.63
2023-05-14T04:39:10.447Z,96382.75
2023-05-14T04:41:38.428Z,96371.16
2023-05-14T04:44:07.114Z,96377.84
2023-05-14T04:46:39.173Z,96372.53
2023-05-14T04:49:09.399Z,96360.66
2023-05-14T04:51:37.699Z,96374.78
2023-05-14T04:54:08.760Z,95386.59
2023-05-14T04:56:37.150Z,96376.25
2023-05-14T04:59:08.857Z,96372.91
2023-05-14T05:01:39.907Z,96373.34
2023-05-14T05:04:11.760Z,96375.00
2023-05-14T05:06:40.132Z,96364.13
2023-05-14T05:09:14.995Z,96363.16
2023-05-14T05:11:43.052Z,96371.63
2023-05-14T05:14:11.026Z,96377.53
2023-05-14T05:16:39.268Z,96373.00
2023-05-14T05:19:10.148Z,96363.22
2023-05-14T05:21:46.499Z,96376.81
2023-05-14T05:24:17.089Z,96303.69
2023-05-14T05:26:44.821Z,96353.25
2023-05-14T05:29:12.504Z,96366.41
2023-05-14T05:31:42.710Z,96368.72
2023-05-14T05:34:11.119Z,96366.25
2023-05-14T05:36:40.773Z,96368.59
2023-05-14T05:39:11.610Z,96365.72
2023-05-14T05:41:45.618Z,96370.41
2023-05-14T05:44:19.863Z,96371.56
2023-05-14T05:46:52.009Z,96352.47
2023-05-14T05:49:26.201Z,96371.22
2023-05-14T05:51:58.025Z,96369.59
2023-05-14T05:54:28.773Z,96359.88
2023-05-14T05:57:08.549Z,96360.03
2023-05-14T05:59:37.461Z,96359.78
2023-05-14T06:02:08.949Z,96360.75
2023-05-14T06:04:45.597Z,96364.91
2023-05-14T06:07:19.117Z,96366.50
2023-05-14T06:09:50.390Z,96367.31
2023-05-14T06:12:26.111Z,96316.44
2023-05-14T06:15:01.393Z,96369.25
2023-05-14T06:17:29.332Z,96369.50
2023-05-14T06:19:59.568Z,96377.16
2023-05-14T06:22:31.247Z,96379.81
2023-05-14T06:25:00.882Z,96378.09
2023-05-14T06:27:30.955Z,96385.13
2023-05-14T06:30:01.805Z,96382.28
2023-05-14T06:32:34.751Z,96370.81
2023-05-14T06:35:09.415Z,96371.53
2023-05-14T06:37:39.151Z,96375.94
2023-05-14T06:40:10.239Z,96378.16
2023-05-14T06:42:40.536Z,96375.34
2023-05-14T06:45:09.143Z,96379.00
2023-05-14T06:47:39.935Z,96377.75
2023-05-14T06:50:10.654Z,96376.28
2023-05-14T06:52:40.663Z,96378.88
2023-05-14T06:55:22.255Z,96373.13
2023-05-14T06:57:53.280Z,96361.47
2023-05-14T07:00:26.732Z,96364.41
2023-05-14T07:02:58.969Z,96362.66
2023-05-14T07:05:27.133Z,96363.25
2023-05-14T07:08:03.121Z,96358.81
2023-05-14T07:10:32.997Z,96366.88
2023-05-14T07:13:09.529Z,96348.19
2023-05-14T07:15:37.876Z,96349.66
2023-05-14T07:18:05.954Z,96345.91
2023-05-14T07:20:36.746Z,96361.38
2023-05-14T07:23:08.192Z,96360.84
2023-05-14T07:25:36.000Z,96361.78
2023-05-14T07:28:04.191Z,96357.66
2023-05-14T07:30:34.361Z,96348.66
2023-05-14T07:33:05.369Z,96344.59
2023-05-14T07:35:36.316Z,96345.22
2023-05-14T07:38:06.399Z,96343.41
2023-05-14T07:40:34.643Z,96343.22
2023-05-14T07:43:10.783Z,96340.84
2023-05-14T07:45:39.217Z,96341.56
2023-05-14T07:48:07.546Z,96334.31
2023-05-14T07:50:43.867Z,96344.97
2023-05-14T07:53:12.962Z,96272.91
2023-05-14T07:55:41.724Z,96342.72
2023-05-14T07:58:09.794Z,96336.84
2023-05-14T08:00:38.316Z,96320.41
2023-05-14T08:03:10.554Z,96338.81
2023-05-14T08:05:39.087Z,96341.09
2023-05-14T08:08:10.842Z,96337.38
2023-05-14T08:10:44.042Z,96341.66
2023-05-14T08:13:13.118Z,96343.41
2023-05-14T08:15:43.252Z,96336.78
2023-05-14T08:18:13.654Z,96339.00
2023-05-14T08:20:46.585Z,96343.63
2023-05-14T08:23:17.569Z,96292.81
2023-05-14T08:25:56.004Z,96332.56
2023-05-14T08:28:25.204Z,96336.91
2023-05-14T08:30:54.551Z,96331.41
2023-05-14T08:33:27.449Z,96328.75
2023-05-14T08:35:59.250Z,96324.03
2023-05-14T08:38:27.008Z,96313.22
2023-05-14T08:41:00.973Z,96328.34
2023-05-14T08:43:34.657Z,96318.25
2023-05-14T08:46:04.971Z,96318.94
2023-05-14T08:48:38.215Z,96296.31
2023-05-14T08:51:11.164Z,96317.53
2023-05-14T08:53:40.578Z,96270.09
2023-05-14T08:56:13.387Z,96308.94
2023-05-14T08:58:46.170Z,96305.94
2023-05-14T09:01:16.772Z,96307.44
2023-05-14T09:03:47.819Z,96299.03
2023-05-14T09:06:17.100Z,96306.59
2023-05-14T09:08:50.192Z,96309.78
2023-05-14T09:11:20.526Z,96306.41
2023-05-14T09:13:58.809Z,96284.47
2023-05-14T09:16:27.520Z,96299.88
2023-05-14T09:19:00.842Z,96082.97
2023-05-14T09:21:35.736Z,96308.50
2023-05-14T09:24:04.204Z,96303.78
2023-05-14T09:26:41.830Z,96283.94
2023-05-14T09:29:14.561Z,96323.63
2023-05-14T09:31:47.578Z,96290.69
2023-05-14T09:34:25.211Z,96298.22
2023-05-14T09:36:59.063Z,96283.34
2023-05-14T09:39:27.950Z,96295.03
2023-05-14T09:42:02.679Z,96294.75
2023-05-14T09:44:31.943Z,96288.81
2023-05-14T09:47:04.450Z,96291.03
2023-05-14T09:49:32.569Z,96285.69
2023-05-14T09:52:01.330Z,96293.69
2023-05-14T09:54:30.761Z,96287.25
2023-05-14T09:57:05.283Z,96289.25
2023-05-14T09:59:35.724Z,96283.91
2023-05-14T10:02:04.351Z,96286.50
2023-05-14T10:04:34.629Z,96275.56
2023-05-14T10:07:03.460Z,96249.53
2023-05-14T10:09:31.242Z,96283.63
2023-05-14T10:12:06.624Z,96284.69
2023-05-14T10:14:40.345Z,96262.44
2023-05-14T10:17:18.849Z,96257.94
2023-05-14T10:19:54.828Z,96285.22
2023-05-14T10:22:30.402Z,96235.50
2023-05-14T10:25:05.047Z,96280.19
2023-05-14T10:27:38.373Z,96274.00
2023-05-14T10:30:14.664Z,96278.09
2023-05-14T10:32:48.761Z,96279.53
2023-05-14T10:35:18.492Z,96265.22
2023-05-14T10:37:47.816Z,96278.75
2023-05-14T10:40:19.509Z,96284.84
2023-05-14T10:42:50.763Z,96289.28
2023-05-14T10:45:22.450Z,96271.38
2023-05-14T10:47:51.088Z,96268.88
2023-05-14T10:50:25.051Z,96264.16
2023-05-14T10:52:57.262Z,96268.41
2023-05-14T10:55:29.692Z,96255.69
2023-05-14T10:58:05.352Z,96236.47
2023-05-14T11:00:36.876Z,96248.28
2023-05-14T11:03:05.765Z,96247.00
2023-05-14T11:05:37.274Z,96244.25
2023-05-14T11:08:10.471Z,96236.00
2023-05-14T11:10:42.536Z,96240.03
2023-05-14T11:13:18.688Z,96241.94
2023-05-14T11:15:49.910Z,95998.81
2023-05-14T11:18:30.076Z,96243.16
2023-05-14T11:21:00.311Z,96238.41
2023-05-14T11:23:31.847Z,96240.00
2023-05-14T11:26:00.235Z,96236.06
2023-05-14T11:28:36.380Z,96240.63
2023-05-14T11:31:05.944Z,96221.44
2023-05-14T11:33:36.124Z,96185.97
2023-05-14T11:36:08.127Z,96230.66
2023-05-14T11:38:36.104Z,96228.53
2023-05-14T11:41:05.822Z,96229.47
2023-05-14T11:43:38.049Z,96233.25
2023-05-14T11:46:08.441Z,96233.31
2023-05-14T11:48:36.346Z,96220.22
2023-05-14T11:51:06.166Z,96178.13
2023-05-14T11:53:37.309Z,96201.72
2023-05-14T11:56:09.649Z,96217.06
2023-05-14T11:58:43.644Z,96201.63
2023-05-14T12:01:20.481Z,96212.63
2023-05-14T12:03:55.849Z,96191.53
2023-05-14T12:06:34.408Z,96213.28
2023-05-14T12:09:03.305Z,96211.53
2023-05-14T12:11:32.919Z,96203.16
2023-05-14T12:14:14.620Z,96198.66
2023-05-14T12:16:44.089Z,96185.31
2023-05-14T12:19:13.059Z,96173.53
2023-05-14T12:21:44.901Z,96189.34
2023-05-14T12:24:13.998Z,96172.06
2023-05-14T12:26:48.948Z,96193.91
2023-05-14T12:29:19.058Z,96194.97
2023-05-14T12:31:49.476Z,96194.06
2023-05-14T12:34:18.918Z,96201.00
2023-05-14T12:36:47.415Z,96188.56
2023-05-14T12:39:17.259Z,96186.75
2023-05-14T12:41:45.340Z,96171.78
2023-05-14T12:44:15.510Z,96172.25
2023-05-14T12:46:46.011Z,96168.59
2023-05-14T12:49:14.163Z,96176.38
2023-05-14T12:51:43.355Z,96179.75
2023-05-14T12:54:12.086Z,96184.28
2023-05-14T12:56:42.906Z,96175.69
2023-05-14T12:59:13.340Z,96180.19
2023-05-14T13:01:46.726Z,96178.50
2023-05-14T13:04:14.754Z,96177.56
2023-05-14T13:06:45.895Z,96174.63
2023-05-14T13:09:19.744Z,96169.47
2023-05-14T13:11:49.614Z,96163.91
2023-05-14T13:14:20.105Z,96151.16
2023-05-14T13:16:52.216Z,96170.03
2023-05-14T13:19:22.796Z,96165.84
2023-05-14T13:21:51.147Z,96161.41
2023-05-14T13:24:19.852Z,96149.44
2023-05-14T13:26:47.623Z,96146.75
2023-05-14T13:29:23.014Z,96154.94
2023-05-14T13:31:57.662Z,96154.78
2023-05-14T13:34:36.001Z,96137.09
2023-05-14T13:37:05.826Z,96135.91
2023-05-14T13:39:33.690Z,96141.06
2023-05-14T13:42:11.015Z,96131.97
2023-05-14T13:44:42.667Z,96113.31
2023-05-14T13:47:13.136Z,96132.41
2023-05-14T13:49:43.847Z,96130.69
2023-05-14T13:52:11.608Z,96126.41
2023-05-14T13:54:39.469Z,96133.91
2023-05-14T13:57:07.619Z,96127.63
2023-05-14T13:59:38.326Z,96127.19
2023-05-14T14:02:17.758Z,96127.91
2023-05-14T14:04:49.410Z,96123.09
2023-05-14T14:07:21.123Z,96119.63
2023-05-14T14:09:49.197Z,96103.00
2023-05-14T14:12:17.043Z,96108.78
2023-05-14T14:14:44.829Z,96103.41
2023-05-14T14:17:12.587Z,96098.06
2023-05-14T14:19:45.181Z,96112.66
2023-05-14T14:22:19.646Z,96108.31
2023-05-14T14:25:10.178Z,96113.56
2023-05-14T14:27:38.909Z,96113.19
2023-05-14T14:30:15.497Z,96108.28
2023-05-14T14:32:45.014Z,96110.94
2023-05-14T14:35:18.799Z,96111.78
2023-05-14T14:37:53.770Z,95945.44
2023-05-14T14:40:24.529Z,96100.81
2023-05-14T14:42:56.839Z,96108.97
2023-05-14T14:45:25.040Z,96089.97
2023-05-14T14:48:15.482Z,96095.97
2023-05-14T14:50:43.323Z,96080.97
2023-05-14T14:53:12.997Z,96086.94
2023-05-14T14:55:41.005Z,96084.13
2023-05-14T14:58:10.719Z,96086.41
2023-05-14T15:00:41.674Z,96091.03
2023-05-14T15:03:11.876Z,96084.13
2023-05-14T15:05:43.679Z,96089.22
2023-05-14T15:08:15.354Z,96083.47
2023-05-14T15:10:45.958Z,96084.69
2023-05-14T15:13:14.775Z,96081.03
2023-05-14T15:15:42.547Z,96073.22
2023-05-14T15:18:11.666Z,96080.97
2023-05-14T15:20:39.780Z,96071.59
2023-05-14T15:23:11.668Z,96080.88
2023-05-14T15:25:43.970Z,96020.72
2023-05-14T15:28:14.165Z,96077.09
2023-05-14T15:30:42.027Z,96072.53
2023-05-14T15:33:10.225Z,96074.75
2023-05-14T15:35:39.920Z,96069.88
2023-05-14T15:38:09.557Z,96067.84
2023-05-14T15:40:37.469Z,96065.91
2023-05-14T15:43:06.652Z,96072.09
2023-05-14T15:45:41.212Z,96079.78
2023-05-14T15:48:09.366Z,96078.97
2023-05-14T15:50:40.124Z,96073.44
2023-05-14T15:53:07.892Z,96064.09
2023-05-14T15:55:35.816Z,96057.16
2023-05-14T15:58:10.447Z,96070.88
2023-05-14T16:00:40.372Z,96067.19
2023-05-14T16:03:08.324Z,96064.28
2023-05-14T16:05:36.983Z,96067.72
2023-05-14T16:08:13.424Z,96031.72
2023-05-14T16:10:41.754Z,96067.16
2023-05-14T16:13:10.005Z,96065.50
2023-05-14T16:15:43.928Z,96064.88
2023-05-14T16:18:11.791Z,96061.44
2023-05-14T16:20:39.579Z,96029.31
2023-05-14T16:23:10.225Z,96060.19
2023-05-14T16:25:38.401Z,96046.88
2023-05-14T16:28:15.452Z,96070.28
2023-05-14T16:30:45.266Z,96061.31
2023-05-14T16:33:13.447Z,96009.19
2023-05-14T16:35:44.617Z,96057.69
2023-05-14T16:38:14.963Z,96074.78
2023-05-14T16:40:43.106Z,96065.06
2023-05-14T16:43:10.904Z,96075.53
2023-05-14T16:45:40.688Z,96067.44
2023-05-14T16:50:56.128Z,96075.00
2023-05-14T16:53:29.314Z,96072.97
2023-05-14T16:55:57.117Z,96073.47
2023-05-14T16:58:25.621Z,96074.75
2023-05-14T17:00:54.775Z,96071.00
2023-05-14T17:03:26.974Z,96073.50
2023-05-14T17:05:55.873Z,96073.19
2023-05-14T17:08:24.069Z,96050.50
2023-05-14T17:10:52.322Z,96070.66
2023-05-14T17:13:26.690Z,96070.84
2023-05-14T17:15:56.522Z,96072.25
2023-05-14T17:18:28.009Z,96070.81
2023-05-14T17:20:59.204Z,96051.00
2023-05-14T17:23:30.222Z,96076.50
2023-05-14T17:25:58.335Z,96082.00
2023-05-14T17:28:29.903Z,96070.34
2023-05-14T17:30:58.757Z,96084.50
2023-05-14T17:33:29.890Z,96071.09
2023-05-14T17:36:01.638Z,96035.88
2023-05-14T17:38:32.014Z,96083.75
2023-05-14T17:41:05.004Z,96091.63
2023-05-14T17:43:35.214Z,96086.41
2023-05-14T17:46:06.801Z,96089.84
2023-05-14T17:48:39.272Z,96098.66
2023-05-14T17:51:09.058Z,96101.41
2023-05-14T17:53:37.374Z,96092.75
2023-05-14T17:56:12.487Z,96075.91
2023-05-14T17:58:45.332Z,96101.06
2023-05-14T18:01:13.718Z,96100.47
2023-05-14T18:03:46.769Z,96100.59
2023-05-14T18:06:19.260Z,96089.28
2023-05-14T18:08:47.031Z,96077.00
2023-05-14T18:11:14.792Z,96086.53
2023-05-14T18:13:46.970Z,96098.03
2023-05-14T18:16:16.692Z,96100.09
2023-05-14T18:18:47.711Z,96106.25
2023-05-14T18:21:18.153Z,96092.09
2023-05-14T18:23:47.874Z,96103.59
2023-05-14T18:26:18.212Z,96083.59
2023-05-14T18:28:48.349Z,96090.69
2023-05-14T18:31:18.904Z,96100.75
2023-05-14T18:33:50.907Z,96103.47
2023-05-14T18:36:22.499Z,96106.75
2023-05-14T18:38:52.421Z,96112.59
2023-05-14T18:41:24.999Z,96109.25
2023-05-14T18:43:55.493Z,96108.31
2023-05-14T18:46:23.706Z,96104.22
2023-05-14T18:48:55.767Z,96104.22
2023-05-14T18:51:23.578Z,96101.84
2023-05-14T18:53:51.900Z,96040.59
2023-05-14T18:56:21.979Z,96099.94
2023-05-14T18:59:04.223Z,96105.78
2023-05-14T19:01:33.088Z,96108.63
2023-05-14T19:04:20.203Z,96182.81
2023-05-14T19:06:51.278Z,96107.66
2023-05-14T19:09:21.118Z,96119.16
2023-05-14T19:11:49.266Z,96121.69
2023-05-14T19:14:27.344Z,96115.84
2023-05-14T19:17:00.143Z,96128.91
2023-05-14T19:19:34.490Z,96125.31
2023-05-14T19:22:02.754Z,96125.44
2023-05-14T19:24:31.001Z,96136.09
2023-05-14T19:27:02.852Z,96133.47
2023-05-14T19:29:32.694Z,96135.25
2023-05-14T19:32:03.101Z,96089.69
2023-05-14T19:34:34.522Z,96127.50
2023-05-14T19:37:02.387Z,96138.38
2023-05-14T19:39:30.681Z,96124.56
2023-05-14T19:42:02.660Z,96144.03
2023-05-14T19:44:34.985Z,96145.66
2023-05-14T19:47:02.822Z,96155.03
2023-05-14T19:49:34.620Z,96151.47
2023-05-14T19:52:03.788Z,96158.44
2023-05-14T19:54:34.053Z,96136.00
2023-05-14T19:57:04.700Z,96170.91
2023-05-14T19:59:40.808Z,96168.09
2023-05-14T20:02:09.239Z,96161.34
2023-05-14T20:04:40.422Z,96171.03
2023-05-14T20:07:15.964Z,96169.25
2023-05-14T20:09:46.388Z,96156.47
2023-05-14T20:12:21.232Z,96153.88
2023-05-14T20:14:49.409Z,96147.56
2023-05-14T20:17:18.852Z,96150.69
2023-05-14T20:19:50.917Z,96145.69
2023-05-14T20:22:24.981Z,96141.31
2023-05-14T20:25:00.388Z,96149.16
2023-05-14T20:27:30.780Z,96147.66
2023-05-14T20:30:02.098Z,96135.94
2023-05-14T20:32:35.661Z,96150.13
2023-05-14T20:35:07.561Z,96146.31
2023-05-14T20:37:38.101Z,96139.69
2023-05-14T20:40:10.469Z,96135.16
2023-05-14T20:42:40.897Z,96176.59
2023-05-14T20:45:10.642Z,96131.88
2023-05-14T20:47:38.871Z,96126.25
2023-05-14T20:50:12.427Z,96101.28
2023-05-14T20:52:43.265Z,96129.16
2023-05-14T20:55:14.973Z,96086.91
2023-05-14T20:57:44.321Z,96130.78
2023-05-14T21:00:15.753Z,96119.56
2023-05-14T21:02:48.789Z,96125.00
2023-05-14T21:05:25.666Z,96124.72
2023-05-14T21:07:53.911Z,96136.59
2023-05-14T21:10:25.897Z,96137.03
2023-05-14T21:12:54.041Z,96131.66
2023-05-14T21:15:22.820Z,96137.34
2023-05-14T21:17:53.101Z,96152.25
2023-05-14T21:20:45.841Z,96124.63
2023-05-14T21:23:15.064Z,96140.28
2023-05-14T21:25:47.630Z,96145.28
2023-05-14T21:28:16.134Z,96147.06
2023-05-14T21:30:46.492Z,96139.72
2023-05-14T21:33:19.275Z,96146.34
2023-05-14T21:35:54.610Z,96099.63
2023-05-14T21:38:25.971Z,96136.31
2023-05-14T21:40:56.346Z,96122.00
2023-05-14T21:43:24.264Z,96123.44
2023-05-14T21:45:52.643Z,96121.34
2023-05-14T21:48:23.611Z,96123.66
2023-05-14T21:50:53.306Z,96109.47
2023-05-14T21:53:21.642Z,96114.59
2023-05-14T21:55:49.850Z,96014.88
2023-05-14T21:58:22.902Z,96097.84
2023-05-14T22:00:51.115Z,96066.97
2023-05-14T22:03:27.752Z,96034.09
2023-05-14T22:05:59.747Z,96104.91
2023-05-14T22:08:31.012Z,96106.50
2023-05-14T22:11:04.236Z,96098.69
2023-05-14T22:13:34.131Z,96042.28
2023-05-14T22:16:12.287Z,96103.97
2023-05-14T22:18:43.763Z,96106.59
2023-05-14T22:21:13.757Z,96103.97
2023-05-14T22:23:41.526Z,96106.34
2023-05-14T22:26:12.466Z,96058.53
2023-05-14T22:28:43.580Z,96082.25
2023-05-14T22:31:12.070Z,96091.91
2023-05-14T22:33:40.470Z,96090.03
2023-05-14T22:36:08.889Z,96092.31
2023-05-14T22:38:43.728Z,96095.06
2023-05-14T22:41:13.784Z,96090.78
2023-05-14T22:43:44.977Z,96101.84
2023-05-14T22:46:18.764Z,96104.00
2023-05-14T22:48:49.181Z,96087.78
2023-05-14T22:51:20.644Z,96099.63
2023-05-14T22:53:51.843Z,96089.63
2023-05-14T22:56:21.833Z,96097.53
2023-05-14T22:58:50.312Z,96088.88
2023-05-14T23:01:18.965Z,96102.41
2023-05-14T23:03:47.392Z,96095.91
2023-05-14T23:06:20.001Z,96091.78
2023-05-14T23:08:54.603Z,96083.13
2023-05-14T23:11:23.170Z,96072.44
2023-05-14T23:13:54.644Z,96080.06
2023-05-14T23:16:22.462Z,96019.94
2023-05-14T23:18:54.498Z,96080.78
2023-05-14T23:21:24.773Z,96067.53
2023-05-14T23:23:56.364Z,96088.97
2023-05-14T23:26:24.116Z,96094.34
2023-05-14T23:29:10.447Z,96090.41
2023-05-14T23:31:38.744Z,96080.31
2023-05-14T23:34:06.887Z,96085.38
2023-05-14T23:36:37.716Z,96074.16
2023-05-14T23:39:09.838Z,96068.72
2023-05-14T23:41:40.024Z,96071.84
2023-05-14T23:44:08.764Z,96083.31
2023-05-14T23:46:36.483Z,96082.94
2023-05-14T23:49:05.968Z,96078.00
2023-05-14T23:51:33.953Z,96070.47
2023-05-14T23:54:03.391Z,96063.78
2023-05-14T23:56:35.170Z,96059.38
2023-05-14T23:59:03.772Z,96066.47
